Crandalls Lodge, Iowa
Current Conditions -  °F | °C
As of 3:34 AM on Monday 20 Oct 2014 (Local Time) from KMJQ Reporting Station
Clear Clear  
Wind Chill: 43°   Ceiling: Unl
Heat Index: 43°   Visibility: 10mi
Dew Point: 36°   Wind: 3mph
Humidity: 76%   Direction: 300°WNW
Pressure: 29.98"   Gusts: NA
Location:  43.4265°N, 95.1547°W
Report Text: KMJQ 200834Z AUTO 30003KT 10SM CLR 06/02 A2998 RMK AO2
Loading
Personal Weather Stations






























Interactive Weather Map New forecast layout! Learn more

10-Day Weather Forecast

Advertisements
Track Severe Weather on mobile